Time;durP1;ratioP1;P1;durP2;ratioP2;P2;SDS_P1;SDS_P2;PMS_P1;PMS_P2;Temp;Humidity;BMP_temperature;BMP_pressure;BME280_temperature;BME280_humidity;BME280_pressure;Samples;Min_cycle;Max_cycle;Signal;HPM_P1;HPM_P2
2023/05/19 00:01:09;;;;;;;13.82;5.07;;;8.20;99.90;;;;;;5127083;27;20052;-60
2023/05/19 00:03:39;;;;;;;14.00;5.28;;;8.20;99.90;;;;;;5126494;27;20119;-59
2023/05/19 00:06:09;;;;;;;12.00;5.35;;;8.10;99.90;;;;;;5092493;28;20044;-59
2023/05/19 00:08:37;;;;;;;10.68;5.30;;;8.10;99.90;;;;;;5093755;28;20047;-59
2023/05/19 00:11:03;;;;;;;10.82;5.53;;;8.10;99.90;;;;;;5076056;28;20071;-59
2023/05/19 00:13:29;;;;;;;12.88;5.93;;;8.10;99.90;;;;;;5092698;28;20053;-59
2023/05/19 00:15:55;;;;;;;9.98;5.32;;;8.00;99.90;;;;;;5093967;28;20036;-60
2023/05/19 00:18:22;;;;;;;13.18;6.20;;;8.00;99.90;;;;;;5125994;27;20412;-60
2023/05/19 00:20:48;;;;;;;12.20;5.47;;;7.90;99.90;;;;;;5094037;28;20044;-59
2023/05/19 00:23:13;;;;;;;9.48;4.95;;;7.90;99.90;;;;;;5126105;27;20496;-59
2023/05/19 00:25:39;;;;;;;9.05;5.47;;;7.90;99.90;;;;;;5092613;28;20040;-59
2023/05/19 00:28:05;;;;;;;12.18;5.07;;;7.80;99.90;;;;;;5075654;28;20044;-59
2023/05/19 00:30:30;;;;;;;9.95;5.65;;;7.90;99.90;;;;;;5125963;27;20042;-59
2023/05/19 00:32:56;;;;;;;10.65;5.50;;;7.80;99.90;;;;;;5092981;28;20039;-59
2023/05/19 00:35:22;;;;;;;10.13;4.68;;;7.80;99.90;;;;;;5074990;28;20052;-59
2023/05/19 00:37:48;;;;;;;10.25;4.65;;;7.80;99.90;;;;;;5126527;27;20048;-60
2023/05/19 00:40:14;;;;;;;11.20;4.38;;;7.70;99.90;;;;;;5092810;28;20062;-60
2023/05/19 00:42:41;;;;;;;9.10;4.78;;;7.70;99.90;;;;;;5108718;28;20088;-60
2023/05/19 00:45:07;;;;;;;10.50;4.68;;;7.70;99.90;;;;;;5109251;28;20048;-59
2023/05/19 00:47:33;;;;;;;15.20;6.47;;;7.70;99.90;;;;;;5092090;28;20102;-59
2023/05/19 00:49:58;;;;;;;15.73;5.32;;;7.60;99.90;;;;;;5093308;28;20157;-59
2023/05/19 00:52:25;;;;;;;8.95;4.70;;;7.60;99.90;;;;;;5092738;28;20091;-59
2023/05/19 00:54:52;;;;;;;8.02;4.70;;;7.60;99.90;;;;;;5092397;28;20040;-59
2023/05/19 00:57:19;;;;;;;8.85;5.28;;;7.60;99.90;;;;;;5091748;28;20516;-59
2023/05/19 00:59:46;;;;;;;11.40;5.60;;;7.60;99.90;;;;;;5093095;28;20548;-60
2023/05/19 01:02:12;;;;;;;9.05;5.03;;;7.60;99.90;;;;;;5091113;28;20065;-60
2023/05/19 01:04:40;;;;;;;11.05;4.68;;;7.60;99.90;;;;;;5092624;28;20477;-60
2023/05/19 01:07:06;;;;;;;11.15;4.78;;;7.60;99.90;;;;;;5093248;28;20067;-59
2023/05/19 01:09:32;;;;;;;6.90;3.95;;;7.60;99.90;;;;;;5089875;28;20072;-59
2023/05/19 01:12:00;;;;;;;7.20;5.00;;;7.50;99.90;;;;;;5091709;28;20423;-59
2023/05/19 01:14:27;;;;;;;12.85;5.22;;;7.50;99.90;;;;;;5091102;28;20044;-59
2023/05/19 01:17:04;;;;;;;8.95;4.97;;;7.40;99.90;;;;;;5096445;28;20053;-60
2023/05/19 01:19:55;;;;;;;11.65;5.35;;;7.40;99.90;;;;;;5111600;28;20434;-60
2023/05/19 01:22:53;;;;;;;9.13;4.57;;;7.40;99.90;;;;;;5111815;28;20161;-59
2023/05/19 01:26:07;;;;;;;12.73;5.55;;;7.40;99.90;;;;;;5112631;28;20441;-60
2023/05/19 01:28:52;;;;;;;9.57;4.38;;;7.30;99.90;;;;;;5106699;28;20109;-60
2023/05/19 01:31:22;;;;;;;8.75;4.82;;;7.30;99.90;;;;;;5111478;28;20538;-59
2023/05/19 01:33:50;;;;;;;11.30;5.15;;;7.20;99.90;;;;;;5112969;28;20032;-59
2023/05/19 01:36:18;;;;;;;12.52;4.72;;;7.20;99.90;;;;;;5110503;28;20048;-60
2023/05/19 01:38:46;;;;;;;11.38;4.53;;;7.20;99.90;;;;;;5111312;28;20047;-60
2023/05/19 01:41:13;;;;;;;11.07;4.85;;;7.20;99.90;;;;;;5111059;28;20043;-60
2023/05/19 01:43:39;;;;;;;11.75;4.88;;;7.30;99.90;;;;;;5110250;28;20139;-59
2023/05/19 01:46:06;;;;;;;11.23;5.55;;;7.20;99.90;;;;;;5094951;28;20056;-59
2023/05/19 01:48:32;;;;;;;8.75;4.90;;;7.20;99.90;;;;;;5091538;28;20071;-60
2023/05/19 01:50:58;;;;;;;11.35;4.97;;;7.20;99.90;;;;;;5090544;28;20047;-59
2023/05/19 01:53:25;;;;;;;13.45;5.70;;;7.20;99.90;;;;;;5090491;28;20036;-60
2023/05/19 01:55:52;;;;;;;11.57;5.05;;;7.20;99.90;;;;;;5091294;28;20115;-60
2023/05/19 01:58:35;;;;;;;10.45;4.95;;;7.20;99.90;;;;;;5090339;28;20529;-59
2023/05/19 02:01:24;;;;;;;12.32;5.03;;;7.20;99.90;;;;;;5092274;28;20044;-60
2023/05/19 02:04:02;;;;;;;12.70;5.20;;;7.20;99.90;;;;;;5091717;28;20044;-59
2023/05/19 02:06:48;;;;;;;11.57;5.03;;;7.20;99.90;;;;;;5091675;28;20130;-59
2023/05/19 02:09:14;;;;;;;8.60;4.20;;;7.20;99.90;;;;;;5091600;28;20493;-60
2023/05/19 02:11:53;;;;;;;11.02;4.15;;;7.20;99.90;;;;;;5089794;28;20044;-59
2023/05/19 02:14:39;;;;;;;13.48;4.93;;;7.20;99.90;;;;;;5090771;28;20060;-59
2023/05/19 02:17:05;;;;;;;8.65;5.40;;;7.10;99.90;;;;;;5092435;28;20032;-59
2023/05/19 02:19:33;;;;;;;12.68;5.55;;;7.10;99.90;;;;;;5089697;28;20147;-59
2023/05/19 02:21:59;;;;;;;12.40;5.60;;;7.10;99.90;;;;;;5090954;28;20105;-59
2023/05/19 02:24:25;;;;;;;13.98;5.40;;;7.10;99.90;;;;;;5090281;28;20528;-59
2023/05/19 02:26:52;;;;;;;12.27;4.50;;;7.10;99.90;;;;;;5092632;28;20043;-59
2023/05/19 02:29:19;;;;;;;8.93;4.43;;;7.10;99.90;;;;;;5094452;28;20044;-59
2023/05/19 02:31:45;;;;;;;15.98;5.10;;;7.10;99.90;;;;;;5095007;28;20039;-59
2023/05/19 02:34:11;;;;;;;7.55;4.30;;;7.10;99.90;;;;;;5093962;28;20554;-59
2023/05/19 02:36:41;;;;;;;8.15;4.25;;;7.20;99.90;;;;;;5095672;28;20040;-59
2023/05/19 02:39:11;;;;;;;12.13;5.28;;;7.20;99.90;;;;;;5094094;28;20455;-59
2023/05/19 02:41:37;;;;;;;10.70;4.57;;;7.10;99.90;;;;;;5095383;28;20549;-60
2023/05/19 02:44:04;;;;;;;13.18;4.43;;;7.10;99.90;;;;;;5094703;28;20083;-59
2023/05/19 02:46:29;;;;;;;11.48;4.65;;;7.10;99.90;;;;;;5093287;28;20078;-59
2023/05/19 02:48:55;;;;;;;9.13;4.15;;;7.10;99.90;;;;;;5095318;28;20036;-59
2023/05/19 02:51:21;;;;;;;10.88;4.03;;;7.00;99.90;;;;;;5095047;28;20423;-59
2023/05/19 02:53:46;;;;;;;9.68;3.97;;;7.00;99.90;;;;;;5095012;28;20038;-59
2023/05/19 02:56:12;;;;;;;10.52;4.35;;;6.90;99.90;;;;;;5095227;28;20040;-60
2023/05/19 02:58:38;;;;;;;9.98;4.80;;;6.90;99.90;;;;;;5094084;28;20059;-59
2023/05/19 03:01:04;;;;;;;9.57;4.50;;;6.90;99.90;;;;;;5094701;28;20081;-59
2023/05/19 03:03:29;;;;;;;9.38;5.25;;;6.80;99.90;;;;;;5093477;28;20354;-59
2023/05/19 03:05:55;;;;;;;9.38;3.92;;;6.80;99.90;;;;;;5094145;28;20040;-59
2023/05/19 03:08:21;;;;;;;10.73;4.03;;;6.80;99.90;;;;;;5092446;28;20051;-60
2023/05/19 03:10:47;;;;;;;9.98;3.95;;;6.80;99.90;;;;;;5095336;28;20032;-59
2023/05/19 03:13:13;;;;;;;11.98;4.93;;;6.90;99.90;;;;;;5093903;28;20040;-59
2023/05/19 03:15:38;;;;;;;14.48;5.20;;;6.90;99.90;;;;;;5094033;28;20422;-59
2023/05/19 03:18:05;;;;;;;12.45;4.65;;;6.90;99.90;;;;;;5094153;28;20052;-60
2023/05/19 03:20:32;;;;;;;11.20;4.43;;;6.90;99.90;;;;;;5093222;28;20046;-59
2023/05/19 03:22:58;;;;;;;9.13;4.25;;;7.00;99.90;;;;;;5093016;28;20052;-59
2023/05/19 03:25:23;;;;;;;11.40;4.38;;;7.00;99.90;;;;;;5093284;28;20035;-60
2023/05/19 03:27:49;;;;;;;14.25;4.78;;;7.00;99.90;;;;;;5093951;28;20040;-59
2023/05/19 03:30:15;;;;;;;8.20;4.13;;;7.00;99.90;;;;;;5093955;28;20040;-59
2023/05/19 03:32:40;;;;;;;9.43;3.95;;;7.00;99.90;;;;;;5093141;28;20048;-60
2023/05/19 03:35:06;;;;;;;8.23;3.97;;;6.90;99.90;;;;;;5103012;28;20038;-59
2023/05/19 03:37:32;;;;;;;11.55;4.22;;;6.90;99.90;;;;;;5112728;28;20395;-59
2023/05/19 03:40:01;;;;;;;9.90;5.43;;;6.90;99.90;;;;;;5113037;28;20038;-59
2023/05/19 03:42:26;;;;;;;11.35;4.35;;;6.80;99.90;;;;;;5112186;28;20044;-59
2023/05/19 03:44:52;;;;;;;9.65;4.60;;;6.80;99.90;;;;;;5113909;28;20108;-59
2023/05/19 03:47:18;;;;;;;11.27;3.90;;;6.80;99.90;;;;;;5113403;28;20476;-59
2023/05/19 03:49:43;;;;;;;10.13;4.68;;;6.80;99.90;;;;;;5112604;28;20062;-59
2023/05/19 03:52:09;;;;;;;10.02;4.72;;;6.80;99.90;;;;;;5114931;28;20088;-59
2023/05/19 03:54:37;;;;;;;12.70;4.07;;;6.80;99.90;;;;;;5113282;28;20079;-59
2023/05/19 03:57:03;;;;;;;10.32;4.85;;;6.80;99.90;;;;;;5114036;27;20050;-59
2023/05/19 03:59:30;;;;;;;15.15;5.15;;;6.80;99.90;;;;;;5113309;28;20100;-59
2023/05/19 04:01:56;;;;;;;10.95;4.43;;;6.90;99.90;;;;;;5114701;28;20089;-59
2023/05/19 04:04:22;;;;;;;10.80;4.72;;;6.90;99.90;;;;;;5111484;28;20083;-60
2023/05/19 04:06:47;;;;;;;11.70;4.13;;;6.90;99.90;;;;;;5114757;28;20116;-59
2023/05/19 04:09:14;;;;;;;13.02;5.20;;;7.00;99.90;;;;;;5113969;28;20093;-59
2023/05/19 04:11:41;;;;;;;10.93;5.53;;;7.10;99.90;;;;;;5112125;28;20525;-60
2023/05/19 04:14:07;;;;;;;10.57;4.88;;;7.10;99.90;;;;;;5113324;28;20035;-59
2023/05/19 04:16:33;;;;;;;11.48;5.07;;;7.20;99.90;;;;;;5113747;28;20034;-59
2023/05/19 04:18:59;;;;;;;14.40;5.22;;;7.20;99.90;;;;;;5113594;28;20495;-60
2023/05/19 04:21:25;;;;;;;11.80;5.50;;;7.30;99.90;;;;;;5113760;28;20048;-59
2023/05/19 04:23:51;;;;;;;16.25;6.20;;;7.40;99.90;;;;;;5113275;28;20051;-62
2023/05/19 04:26:18;;;;;;;34.78;24.23;;;7.50;99.90;;;;;;5112009;28;20092;-59
2023/05/19 04:28:44;;;;;;;17.08;10.15;;;7.50;99.90;;;;;;5112693;28;20040;-59
2023/05/19 04:31:13;;;;;;;15.88;7.00;;;7.50;99.90;;;;;;5103775;28;20469;-59
2023/05/19 04:33:39;;;;;;;19.00;7.97;;;7.60;99.90;;;;;;5091130;28;20070;-59
2023/05/19 04:36:09;;;;;;;15.30;7.75;;;7.70;99.90;;;;;;5092506;28;20040;-58
2023/05/19 04:38:40;;;;;;;15.30;8.70;;;7.70;99.90;;;;;;5092554;28;20048;-59
2023/05/19 04:41:09;;;;;;;12.95;7.97;;;7.80;99.90;;;;;;5092232;28;20048;-59
2023/05/19 04:43:40;;;;;;;14.27;7.32;;;7.90;99.90;;;;;;5093024;28;20458;-59
2023/05/19 04:46:11;;;;;;;18.73;12.68;;;8.00;99.90;;;;;;5077981;28;20039;-59
2023/05/19 04:48:38;;;;;;;19.25;10.07;;;8.00;99.90;;;;;;5082288;28;20420;-59
2023/05/19 04:51:05;;;;;;;17.27;10.80;;;8.20;99.90;;;;;;5092377;28;20083;-58
2023/05/19 04:53:30;;;;;;;26.52;11.32;;;8.30;99.90;;;;;;5112071;28;20042;-59
2023/05/19 04:55:57;;;;;;;19.15;10.07;;;8.40;99.90;;;;;;5113567;28;20447;-60
2023/05/19 04:58:26;;;;;;;17.98;8.48;;;8.60;99.90;;;;;;5112678;28;20036;-59
2023/05/19 05:00:54;;;;;;;16.45;10.40;;;8.70;99.90;;;;;;5094908;28;20043;-59
2023/05/19 05:03:21;;;;;;;19.80;8.00;;;8.80;99.90;;;;;;5112974;28;20038;-59
2023/05/19 05:05:47;;;;;;;18.88;11.77;;;8.90;99.90;;;;;;5108442;28;20488;-59
2023/05/19 05:08:15;;;;;;;17.70;8.57;;;9.00;99.90;;;;;;5092146;28;20120;-59
2023/05/19 05:10:41;;;;;;;20.70;10.68;;;9.00;99.90;;;;;;5092770;28;20078;-59
2023/05/19 05:13:07;;;;;;;16.88;8.32;;;9.20;99.90;;;;;;5111497;28;20047;-59
2023/05/19 05:15:34;;;;;;;28.50;11.60;;;9.30;99.90;;;;;;5109136;28;20043;-58
2023/05/19 05:18:00;;;;;;;18.17;11.88;;;9.40;99.90;;;;;;5094509;28;20054;-60
2023/05/19 05:20:26;;;;;;;15.48;6.18;;;9.50;99.90;;;;;;5112041;28;20396;-59
2023/05/19 05:22:52;;;;;;;18.67;7.68;;;9.50;99.90;;;;;;5110713;28;20047;-59
2023/05/19 05:25:18;;;;;;;16.15;6.93;;;9.60;99.90;;;;;;5111145;28;20049;-59
2023/05/19 05:27:44;;;;;;;13.00;7.93;;;9.70;99.90;;;;;;5110577;28;20383;-60
2023/05/19 05:30:10;;;;;;;14.18;6.72;;;9.90;99.90;;;;;;5109785;28;20036;-59
2023/05/19 05:32:36;;;;;;;12.43;6.30;;;10.00;99.90;;;;;;5111215;28;20114;-59
2023/05/19 05:35:02;;;;;;;12.98;6.40;;;10.00;99.90;;;;;;5111470;28;20432;-58
2023/05/19 05:37:27;;;;;;;18.20;6.50;;;10.20;99.90;;;;;;5093705;28;20504;-59
2023/05/19 05:39:53;;;;;;;17.45;6.60;;;10.20;99.90;;;;;;5112166;28;20035;-59
2023/05/19 05:42:19;;;;;;;17.27;5.38;;;10.30;99.90;;;;;;5108933;28;20047;-59
2023/05/19 05:44:44;;;;;;;17.02;6.57;;;10.40;99.90;;;;;;5112214;28;20032;-59
2023/05/19 05:47:11;;;;;;;12.77;6.07;;;10.50;99.90;;;;;;5110785;28;20079;-59
2023/05/19 05:49:37;;;;;;;8.80;5.57;;;10.60;99.90;;;;;;5110938;28;20044;-59
2023/05/19 05:52:05;;;;;;;14.98;6.45;;;10.80;99.90;;;;;;5111226;28;20404;-61
2023/05/19 05:54:31;;;;;;;13.38;6.43;;;10.80;99.90;;;;;;5096423;28;20043;-59
2023/05/19 05:56:57;;;;;;;10.43;5.50;;;11.00;99.90;;;;;;5111310;28;20404;-59
2023/05/19 05:59:22;;;;;;;11.85;5.43;;;11.00;99.90;;;;;;5109017;28;20057;-59
2023/05/19 06:01:48;;;;;;;15.82;5.07;;;11.20;99.90;;;;;;5111783;28;20043;-59
2023/05/19 06:04:13;;;;;;;11.38;5.18;;;11.20;99.90;;;;;;5109070;28;20035;-60
2023/05/19 06:06:39;;;;;;;15.98;5.38;;;11.30;99.90;;;;;;5110936;28;20388;-60
2023/05/19 06:09:05;;;;;;;10.60;5.00;;;11.40;99.90;;;;;;5111260;28;20044;-60
2023/05/19 06:11:31;;;;;;;12.10;6.18;;;11.50;99.90;;;;;;5111421;28;20114;-60
2023/05/19 06:13:57;;;;;;;11.98;4.80;;;11.60;99.90;;;;;;5092284;28;20463;-59
2023/05/19 06:16:22;;;;;;;12.10;5.10;;;11.70;99.90;;;;;;5090422;28;20035;-60
2023/05/19 06:18:48;;;;;;;11.27;4.50;;;11.80;99.90;;;;;;5110363;28;20043;-60
2023/05/19 06:21:14;;;;;;;13.65;4.97;;;11.80;99.90;;;;;;5088139;28;20468;-59
2023/05/19 06:23:40;;;;;;;13.48;5.32;;;11.90;99.90;;;;;;5087930;28;20071;-59
2023/05/19 06:26:06;;;;;;;10.18;5.97;;;11.90;99.90;;;;;;5088806;28;20097;-60
2023/05/19 06:28:32;;;;;;;12.88;5.25;;;12.00;99.90;;;;;;5088891;28;20047;-59
2023/05/19 06:30:58;;;;;;;10.90;5.55;;;12.00;99.90;;;;;;5088897;28;20442;-59
2023/05/19 06:33:25;;;;;;;12.50;5.75;;;12.10;99.90;;;;;;5087246;28;20119;-59
2023/05/19 06:35:50;;;;;;;10.57;5.07;;;12.20;99.90;;;;;;5087942;28;20476;-59
2023/05/19 06:38:16;;;;;;;13.90;5.15;;;12.30;99.90;;;;;;5087137;28;20138;-60
2023/05/19 06:40:42;;;;;;;13.27;4.57;;;12.40;99.90;;;;;;5087544;28;20044;-59
2023/05/19 06:43:08;;;;;;;10.02;4.95;;;12.50;99.90;;;;;;5087457;28;20075;-59
2023/05/19 06:45:34;;;;;;;11.93;5.00;;;12.60;99.90;;;;;;5097208;28;20048;-59
2023/05/19 06:48:00;;;;;;;18.15;5.57;;;12.60;99.90;;;;;;5106571;28;20062;-60
2023/05/19 06:50:25;;;;;;;11.73;5.00;;;12.70;99.90;;;;;;5103312;28;20040;-59
2023/05/19 06:52:56;;;;;;;11.80;4.30;;;12.80;99.90;;;;;;5091294;28;20040;-59
2023/05/19 06:55:21;;;;;;;14.40;6.07;;;12.90;99.90;;;;;;5089921;28;20380;-60
2023/05/19 06:57:47;;;;;;;20.27;6.38;;;13.00;99.90;;;;;;5109392;28;20044;-59
2023/05/19 07:00:13;;;;;;;12.00;5.25;;;13.10;99.90;;;;;;5095710;28;20028;-59
2023/05/19 07:02:39;;;;;;;9.80;5.63;;;13.10;99.90;;;;;;5074783;28;20048;-60
2023/05/19 07:05:06;;;;;;;11.05;5.32;;;13.10;99.90;;;;;;5109976;28;20054;-60
2023/05/19 07:07:32;;;;;;;10.02;4.57;;;13.20;99.90;;;;;;5102276;28;20062;-60
2023/05/19 07:09:58;;;;;;;8.23;4.28;;;13.20;99.90;;;;;;5093500;28;20473;-60
2023/05/19 07:12:25;;;;;;;10.02;3.70;;;13.30;99.90;;;;;;5092583;28;20028;-60
2023/05/19 07:14:51;;;;;;;13.07;4.60;;;13.40;99.90;;;;;;5110129;28;20043;-60
2023/05/19 07:17:17;;;;;;;15.75;6.57;;;13.40;99.90;;;;;;5108304;28;20061;-60
2023/05/19 07:19:43;;;;;;;16.73;4.88;;;13.40;99.90;;;;;;5090858;28;20048;-59
2023/05/19 07:22:08;;;;;;;10.30;4.60;;;13.50;99.90;;;;;;5107228;28;20077;-60
2023/05/19 07:24:34;;;;;;;11.18;5.03;;;13.70;99.90;;;;;;5113129;28;20044;-59
2023/05/19 07:27:00;;;;;;;11.43;4.57;;;13.70;99.90;;;;;;5082508;28;20090;-57
2023/05/19 07:29:26;;;;;;;9.88;4.70;;;13.80;99.90;;;;;;5073449;28;20097;-57
2023/05/19 07:31:53;;;;;;;9.60;3.90;;;13.90;99.90;;;;;;5096579;28;20526;-57
2023/05/19 07:34:19;;;;;;;11.20;4.22;;;13.90;99.90;;;;;;5083485;28;20036;-57
2023/05/19 07:36:45;;;;;;;13.10;4.32;;;13.90;99.90;;;;;;5109670;28;20047;-57
2023/05/19 07:39:11;;;;;;;14.95;4.75;;;13.90;99.90;;;;;;5111636;28;20108;-57
2023/05/19 07:41:36;;;;;;;7.43;4.20;;;14.00;99.90;;;;;;5107353;28;20446;-57
2023/05/19 07:44:06;;;;;;;8.70;3.85;;;14.10;99.90;;;;;;5110947;28;20086;-58
2023/05/19 07:46:35;;;;;;;8.13;4.00;;;14.10;99.90;;;;;;5110169;28;20731;-57
2023/05/19 07:49:01;;;;;;;9.20;4.95;;;14.20;99.90;;;;;;5091859;28;20040;-57
2023/05/19 07:51:26;;;;;;;9.77;3.55;;;14.30;99.90;;;;;;5106347;28;20070;-57
2023/05/19 07:53:52;;;;;;;8.02;4.00;;;14.40;99.90;;;;;;5108011;28;20496;-57
2023/05/19 07:56:18;;;;;;;9.93;3.83;;;14.40;99.90;;;;;;5096954;28;20040;-57
2023/05/19 07:58:44;;;;;;;9.80;4.22;;;14.50;99.90;;;;;;5111202;28;20039;-58
2023/05/19 08:01:10;;;;;;;12.88;4.07;;;14.50;99.90;;;;;;5095229;28;20056;-57
2023/05/19 08:03:36;;;;;;;9.88;4.47;;;14.50;99.90;;;;;;5095058;28;20051;-57
2023/05/19 08:06:02;;;;;;;10.02;3.97;;;14.60;99.90;;;;;;5100336;28;20047;-57
2023/05/19 08:08:27;;;;;;;9.63;4.30;;;14.70;99.90;;;;;;5105509;28;20051;-57
2023/05/19 08:10:53;;;;;;;9.50;4.10;;;14.80;99.90;;;;;;5109451;28;20040;-57
2023/05/19 08:13:18;;;;;;;10.80;4.32;;;14.70;99.90;;;;;;5109743;28;20050;-57
2023/05/19 08:15:44;;;;;;;7.70;3.47;;;14.70;99.90;;;;;;5110464;28;20048;-57
2023/05/19 08:18:10;;;;;;;8.10;4.35;;;14.70;99.90;;;;;;5110608;28;20074;-57
2023/05/19 08:20:36;;;;;;;9.02;4.55;;;14.80;99.90;;;;;;5109798;28;20143;-57
2023/05/19 08:23:02;;;;;;;11.30;4.13;;;14.70;99.90;;;;;;5110988;28;20039;-57
2023/05/19 08:25:27;;;;;;;11.07;4.20;;;14.70;99.90;;;;;;5117035;27;20511;-57
2023/05/19 08:27:53;;;;;;;10.70;4.32;;;14.70;99.90;;;;;;5107749;28;20047;-57
2023/05/19 08:30:19;;;;;;;9.05;3.80;;;14.70;99.90;;;;;;5107853;28;20045;-57
2023/05/19 08:32:44;;;;;;;9.55;4.45;;;14.80;99.90;;;;;;5107559;28;20118;-57
2023/05/19 08:35:10;;;;;;;10.88;4.50;;;14.90;99.90;;;;;;5076357;28;20107;-57
2023/05/19 08:37:37;;;;;;;8.75;4.63;;;14.90;99.90;;;;;;5098151;28;20193;-57
2023/05/19 08:40:04;;;;;;;9.82;3.65;;;15.00;99.90;;;;;;5093839;28;20136;-57
2023/05/19 08:42:31;;;;;;;8.93;4.03;;;15.10;99.90;;;;;;5091428;28;20055;-57
2023/05/19 08:44:58;;;;;;;9.70;3.80;;;15.10;99.90;;;;;;5093808;28;20032;-57
2023/05/19 08:47:24;;;;;;;9.25;4.63;;;15.10;99.90;;;;;;5101268;28;20044;-57
2023/05/19 08:49:54;;;;;;;7.28;3.67;;;15.20;99.90;;;;;;5092167;28;20494;-57
2023/05/19 08:52:37;;;;;;;8.32;4.13;;;15.20;99.90;;;;;;5098768;27;20055;-58
2023/05/19 08:55:08;;;;;;;9.52;3.80;;;15.20;99.90;;;;;;5108343;27;20392;-57
2023/05/19 08:57:35;;;;;;;9.32;3.97;;;15.10;99.90;;;;;;5102471;28;20493;-57
2023/05/19 09:00:06;;;;;;;8.27;3.53;;;15.10;99.90;;;;;;5106874;28;20054;-58
2023/05/19 09:02:32;;;;;;;7.75;3.53;;;15.20;99.90;;;;;;5106011;28;20040;-57
2023/05/19 09:04:58;;;;;;;8.95;3.97;;;15.20;99.90;;;;;;5091838;28;20036;-57
2023/05/19 09:07:24;;;;;;;9.98;5.05;;;15.30;99.90;;;;;;5099789;28;20037;-57
2023/05/19 09:09:50;;;;;;;10.77;4.28;;;15.30;99.90;;;;;;5109170;28;20071;-57
2023/05/19 09:12:16;;;;;;;8.85;4.32;;;15.40;99.90;;;;;;5094967;28;20105;-57
2023/05/19 09:14:42;;;;;;;10.40;3.75;;;15.40;99.90;;;;;;5106479;28;20043;-57
2023/05/19 09:17:08;;;;;;;10.45;4.38;;;15.50;99.90;;;;;;5102720;28;20040;-57
2023/05/19 09:19:34;;;;;;;8.70;3.90;;;15.50;99.90;;;;;;5095934;28;20043;-57
2023/05/19 09:22:04;;;;;;;7.97;3.40;;;15.50;99.90;;;;;;5088990;28;20092;-58
2023/05/19 09:24:30;;;;;;;6.78;3.55;;;15.50;99.90;;;;;;5094687;28;20044;-62
2023/05/19 09:26:56;;;;;;;7.38;3.90;;;15.50;99.90;;;;;;5102797;28;20632;-62
2023/05/19 09:29:22;;;;;;;6.60;3.15;;;15.50;99.90;;;;;;5108709;28;20047;-62
2023/05/19 09:31:59;;;;;;;10.05;3.90;;;15.60;99.90;;;;;;5101103;28;20075;-62
2023/05/19 09:34:25;;;;;;;10.07;4.32;;;15.60;99.90;;;;;;5089173;28;20040;-61
2023/05/19 09:36:52;;;;;;;8.68;3.55;;;15.70;99.90;;;;;;5105908;28;20047;-62
2023/05/19 09:39:20;;;;;;;10.43;4.22;;;15.80;99.90;;;;;;5092763;28;20476;-62
2023/05/19 09:41:46;;;;;;;11.20;3.80;;;15.90;99.90;;;;;;5108468;28;20518;-62
2023/05/19 09:44:34;;;;;;;11.52;4.13;;;15.90;99.90;;;;;;5104644;28;20036;-62
2023/05/19 09:46:59;;;;;;;8.27;3.35;;;16.10;99.90;;;;;;5089712;28;20567;-62
2023/05/19 09:49:30;;;;;;;9.10;4.15;;;16.10;99.80;;;;;;5102141;28;20035;-62
2023/05/19 09:51:57;;;;;;;11.40;3.90;;;16.30;99.60;;;;;;5102553;28;20118;-62
2023/05/19 09:54:24;;;;;;;9.23;2.95;;;16.40;98.70;;;;;;5104022;28;20036;-62
2023/05/19 09:57:01;;;;;;;6.97;3.42;;;16.50;98.00;;;;;;5094373;28;20051;-62
2023/05/19 09:59:27;;;;;;;8.13;3.78;;;16.50;96.80;;;;;;5095113;28;20036;-62
2023/05/19 10:01:58;;;;;;;10.20;3.95;;;16.60;96.70;;;;;;5094328;28;20055;-62
2023/05/19 10:04:26;;;;;;;7.68;3.78;;;16.60;97.40;;;;;;5100045;28;20168;-62
2023/05/19 10:06:59;;;;;;;7.45;2.97;;;16.70;96.90;;;;;;5101800;28;20395;-62
2023/05/19 10:09:26;;;;;;;9.27;3.58;;;16.70;96.70;;;;;;5100378;28;20508;-62
2023/05/19 10:11:53;;;;;;;8.20;3.63;;;16.80;97.20;;;;;;5090572;28;20698;-62
2023/05/19 10:14:23;;;;;;;6.85;3.30;;;16.90;97.30;;;;;;5087624;28;20392;-62
2023/05/19 10:16:50;;;;;;;7.25;3.58;;;16.90;96.50;;;;;;5087449;28;20204;-61
2023/05/19 10:19:23;;;;;;;9.63;3.38;;;16.70;95.30;;;;;;5089274;28;20122;-61
2023/05/19 10:21:50;;;;;;;9.02;3.25;;;16.70;96.10;;;;;;5081655;28;20414;-62
2023/05/19 10:24:16;;;;;;;7.93;3.08;;;16.60;96.30;;;;;;5094059;28;20093;-68
2023/05/19 10:27:03;;;;;;;8.25;3.15;;;16.60;95.90;;;;;;5087736;28;20059;-64
2023/05/19 10:29:33;;;;;;;6.68;2.90;;;16.50;96.20;;;;;;5090298;28;20494;-60
2023/05/19 10:32:03;;;;;;;7.15;3.13;;;16.40;96.30;;;;;;5105748;28;20444;-60
2023/05/19 10:34:50;;;;;;;9.68;4.40;;;16.40;96.70;;;;;;5108360;28;20046;-59
2023/05/19 10:37:45;;;;;;;7.50;3.20;;;16.50;95.10;;;;;;5087288;28;20047;-61
2023/05/19 10:40:40;;;;;;;8.45;3.35;;;16.50;95.70;;;;;;5095069;28;20036;-61
2023/05/19 10:43:15;;;;;;;;;;;16.60;96.10;;;;;;5090958;28;20048;-61
2023/05/19 10:45:48;;;;;;;8.60;3.40;;;16.60;95.50;;;;;;5106848;28;19921;-61
2023/05/19 10:48:15;;;;;;;6.97;2.72;;;16.70;96.20;;;;;;5076152;28;20051;-63
2023/05/19 10:50:44;;;;;;;8.57;2.75;;;16.80;96.50;;;;;;5098906;28;20043;-62
2023/05/19 10:53:17;;;;;;;8.18;3.08;;;16.90;96.10;;;;;;5108071;28;20065;-61
2023/05/19 10:55:50;;;;;;;8.70;3.63;;;16.80;95.20;;;;;;5115824;28;20034;-61
2023/05/19 10:58:44;;;;;;;8.95;3.10;;;16.70;95.40;;;;;;5114481;28;20048;-61
2023/05/19 11:01:18;;;;;;;6.65;3.00;;;16.60;94.30;;;;;;5114835;28;20043;-62
2023/05/19 11:03:47;;;;;;;6.90;3.25;;;16.50;95.00;;;;;;5115670;28;20040;-62
2023/05/19 11:06:24;;;;;;;13.55;3.38;;;16.30;94.80;;;;;;5113773;28;20480;-61
2023/05/19 11:09:14;;;;;;;10.40;3.63;;;16.30;95.10;;;;;;5114688;28;20466;-61
2023/05/19 11:11:51;;;;;;;7.72;3.10;;;16.40;95.80;;;;;;5104843;28;20051;-61
2023/05/19 11:14:19;;;;;;;6.90;3.20;;;16.50;94.90;;;;;;5114827;28;20400;-61
2023/05/19 11:16:49;;;;;;;11.52;3.38;;;16.40;95.00;;;;;;5114378;28;20118;-61
2023/05/19 11:19:28;;;;;;;7.63;3.65;;;16.50;94.90;;;;;;5113948;28;20480;-61
2023/05/19 11:21:56;;;;;;;7.22;3.20;;;16.50;94.50;;;;;;5114651;28;20450;-61
2023/05/19 11:24:44;;;;;;;10.20;3.67;;;16.60;94.70;;;;;;5113639;28;20496;-62
2023/05/19 11:27:32;;;;;;;8.20;4.18;;;16.80;95.00;;;;;;5114687;28;20047;-62
2023/05/19 11:29:59;;;;;;;10.10;3.88;;;16.80;93.50;;;;;;5114448;28;20058;-61
2023/05/19 11:32:29;;;;;;;7.25;3.42;;;16.80;94.40;;;;;;5114929;28;20044;-62
2023/05/19 11:34:56;;;;;;;6.85;3.90;;;16.90;94.40;;;;;;5113564;28;20048;-62
2023/05/19 11:37:22;;;;;;;5.88;3.25;;;16.90;94.70;;;;;;5114793;28;20035;-62
2023/05/19 11:39:48;;;;;;;7.95;3.72;;;16.90;94.20;;;;;;5113906;28;20122;-62
2023/05/19 11:42:15;;;;;;;10.75;4.63;;;16.90;93.80;;;;;;5113854;27;20059;-61
2023/05/19 11:44:41;;;;;;;10.52;3.83;;;16.90;93.30;;;;;;5113599;28;20051;-62
2023/05/19 11:47:07;;;;;;;9.88;4.30;;;17.00;93.40;;;;;;5115327;28;20111;-61
2023/05/19 11:49:33;;;;;;;9.32;3.85;;;17.10;93.30;;;;;;5113982;28;20035;-61
2023/05/19 11:52:02;;;;;;;7.47;3.20;;;17.20;93.60;;;;;;5115197;28;20035;-61
2023/05/19 11:54:35;;;;;;;10.02;3.85;;;17.20;93.50;;;;;;5113078;28;20720;-62
2023/05/19 11:57:04;;;;;;;10.52;3.97;;;17.20;93.50;;;;;;5115123;28;20046;-62
2023/05/19 11:59:34;;;;;;;8.18;3.60;;;17.10;93.70;;;;;;5113494;28;20092;-61
2023/05/19 12:02:13;;;;;;;7.68;3.28;;;17.00;93.70;;;;;;5112598;28;20047;-61
2023/05/19 12:04:38;;;;;;;13.02;4.10;;;17.00;94.80;;;;;;5113211;28;20043;-61
2023/05/19 12:07:04;;;;;;;11.38;3.60;;;16.90;94.90;;;;;;5114765;28;20069;-62
2023/05/19 12:09:31;;;;;;;13.63;4.72;;;17.00;94.50;;;;;;5111853;28;20036;-61
2023/05/19 12:11:57;;;;;;;8.77;4.28;;;17.10;94.90;;;;;;5113651;28;20039;-61
2023/05/19 12:14:24;;;;;;;9.80;3.53;;;17.10;94.90;;;;;;5112740;28;20035;-61
2023/05/19 12:16:50;;;;;;;10.20;3.95;;;17.20;94.90;;;;;;5112420;28;20085;-61
2023/05/19 12:19:16;;;;;;;9.65;4.30;;;17.20;95.30;;;;;;5114278;28;20039;-62
2023/05/19 12:21:42;;;;;;;7.68;3.90;;;17.20;95.20;;;;;;5095913;28;20054;-61
2023/05/19 12:24:08;;;;;;;13.02;4.25;;;17.10;95.50;;;;;;5113570;28;20039;-61
2023/05/19 12:26:35;;;;;;;8.00;4.30;;;17.10;95.30;;;;;;5112997;28;20058;-61
2023/05/19 12:29:04;;;;;;;11.35;4.68;;;17.10;95.40;;;;;;5112740;28;20545;-60
2023/05/19 12:31:29;;;;;;;8.55;4.22;;;17.20;95.80;;;;;;5096183;28;20060;-62
2023/05/19 12:33:55;;;;;;;8.68;4.13;;;17.30;95.90;;;;;;5096023;28;20126;-62
2023/05/19 12:36:23;;;;;;;9.35;4.10;;;17.20;95.20;;;;;;5102226;28;20113;-62
2023/05/19 12:38:56;;;;;;;11.52;4.97;;;17.20;95.30;;;;;;5098086;28;20050;-62
2023/05/19 12:41:24;;;;;;;8.57;4.43;;;17.20;95.80;;;;;;5099940;28;20540;-62
2023/05/19 12:43:49;;;;;;;8.23;4.28;;;17.20;95.60;;;;;;5105815;28;20056;-62
2023/05/19 12:46:17;;;;;;;11.98;4.85;;;17.20;96.20;;;;;;5106601;28;20047;-62
2023/05/19 12:48:44;;;;;;;11.55;4.75;;;17.30;95.90;;;;;;5089482;28;20500;-62
2023/05/19 12:51:20;;;;;;;8.90;4.50;;;17.30;96.20;;;;;;5088737;28;20076;-62